Airfield :
LOGIN :

Register | Disclaimer

   EN    FR    IT 

 










Legend :    VFR   Marginal VFR   IFR   Intensive IFR   Very Intensive IFR
Visi :
Ceiling :
>= 8 km
>= 3000ft
5 to 8 km
1000 to 3000 ft
1500m to 5 km
500 to 1000 ft
800 to 1500m
200 to 500 ft
< 800m
< 200 ft
Symbols :   Thunderstorms  Fog  Heavy snow  Heavy precipitations  Wind > 20 kt
SIGMETs :     Misc.  Thunderstorms  Icing  Turbulence  Mountain Waves  Volcanic Ashes







- Airport Elevation : 141 ft
- IATA code : SKS


EKSP - Srydstrup Vojens

CURRENT METAR :
  • 202350Z 10020G33KT 9999 BKN020 BKN025 06/02 Q1020

EXPIRED METARs :
  • 202320Z 09016G26KT 9999 BKN020 BKN025 06/02 Q1020
  • 202250Z 09015KT 9999 BKN020 BKN025 06/02 Q1020
  • 202220Z 10019KT 070V130 9999 BKN020 BKN025 06/02 Q1020
  • 202150Z 09018KT 060V120 9999 BKN022 BKN030 06/02 Q1020
  • 202120Z 09016G28KT 050V110 9999 BKN022 BKN030 06/02 Q1020
  • 202050Z 09016KT 9999 SCT022 BKN030 06/02 Q1020

TAF TAF EKSP
Valid from the 21 at 00:00 until the 22 at 00:00 UTC


202301Z 2100/2124 08015KT 9999 SCT020 BKN035
TEMPO 2100/2116 09018G30KT
No reported NOTAMs for that airfield.



MET'MAP, your aeronautical weather chart ! - Copyright ORBIFLY December 2007 - Disclaimer

ORBIFLY MET'MAP TEAM :

Programming & Development : Alexandra Zaïnal
Concept & Development : Baudouin d'Aumeries
Co-Development & Prog : Marc-Olivier Méhu
Technical & hardware support : Manuel Goepfert

Contact : metmap@orbifly.com




SOURCES & CREDITS :

   NOAA